createdAt,value
2018-01-19T00:00:00.545Z,12.50
2018-01-19T00:01:01.197Z,11.80
2018-01-19T00:02:21.652Z,12.60
2018-01-19T00:03:22.402Z,12.70
2018-01-19T00:04:22.031Z,13.30
2018-01-19T00:05:22.601Z,13.80
2018-01-19T00:06:22.192Z,12.60
2018-01-19T00:07:21.527Z,12.40
2018-01-19T00:08:21.901Z,13.60
2018-01-19T00:09:22.121Z,13.90
2018-01-19T00:10:22.490Z,14.00
2018-01-19T00:11:22.285Z,15.00
2018-01-19T00:12:22.199Z,15.10
2018-01-19T00:13:22.619Z,15.30
2018-01-19T00:14:22.395Z,16.20
2018-01-19T00:15:21.939Z,15.60
2018-01-19T00:16:22.570Z,16.20
2018-01-19T00:17:22.009Z,16.20
2018-01-19T00:18:22.882Z,16.50
2018-01-19T00:19:22.539Z,17.90
2018-01-19T00:20:22.245Z,16.80
2018-01-19T00:21:22.732Z,16.20
2018-01-19T00:22:22.546Z,16.70
2018-01-19T00:23:22.007Z,17.20
2018-01-19T00:24:22.624Z,17.80
2018-01-19T00:25:22.395Z,19.20
2018-01-19T00:26:21.751Z,18.20
2018-01-19T00:27:22.487Z,18.40
2018-01-19T00:28:21.788Z,17.80
2018-01-19T00:29:22.379Z,17.50
2018-01-19T00:30:21.756Z,18.60
2018-01-19T00:31:22.342Z,19.30
2018-01-19T00:32:21.978Z,18.60
2018-01-19T00:33:22.670Z,19.40
2018-01-19T00:34:22.172Z,19.40
2018-01-19T00:35:22.445Z,19.20
2018-01-19T00:36:22.072Z,19.80
2018-01-19T00:37:22.942Z,18.20
2018-01-19T00:38:22.671Z,18.80
2018-01-19T00:39:22.107Z,18.80
2018-01-19T00:40:22.537Z,19.80
2018-01-19T00:41:21.813Z,20.10
2018-01-19T00:42:22.324Z,20.20
2018-01-19T00:43:21.585Z,19.10
2018-01-19T00:44:22.075Z,18.70
2018-01-19T00:45:22.595Z,18.80
2018-01-19T00:46:21.864Z,20.90
2018-01-19T00:47:22.273Z,19.20
2018-01-19T00:48:21.521Z,19.60
2018-01-19T00:49:21.786Z,21.00
2018-01-19T00:50:22.687Z,20.80
2018-01-19T00:51:22.181Z,21.10
2018-01-19T00:52:21.969Z,20.20
2018-01-19T00:53:22.292Z,22.00
2018-01-19T00:54:21.582Z,22.40
2018-01-19T00:55:22.320Z,22.00
2018-01-19T00:56:21.715Z,21.30
2018-01-19T00:57:22.395Z,20.80
2018-01-19T00:58:22.445Z,21.70
2018-01-19T00:59:22.318Z,22.40
2018-01-19T01:00:43.743Z,22.70
2018-01-19T01:01:44.234Z,23.10
2018-01-19T01:03:05.287Z,22.80
2018-01-19T01:04:06.055Z,23.50
2018-01-19T01:05:05.198Z,23.30
2018-01-19T01:06:05.998Z,24.30
2018-01-19T01:07:05.390Z,23.50
2018-01-19T01:08:06.096Z,23.20
2018-01-19T01:09:05.378Z,24.30
2018-01-19T01:10:05.500Z,23.90
2018-01-19T01:11:06.354Z,24.90
2018-01-19T01:12:05.826Z,24.10
2018-01-19T01:13:05.383Z,23.80
2018-01-19T01:14:05.819Z,26.70
2018-01-19T01:15:05.715Z,25.50
2018-01-19T01:16:05.215Z,25.70
2018-01-19T01:17:05.926Z,25.30
2018-01-19T01:18:05.866Z,26.40
2018-01-19T01:19:26.539Z,26.70
2018-01-19T01:20:27.202Z,27.40
2018-01-19T01:21:26.854Z,27.30
2018-01-19T01:22:27.291Z,27.60
2018-01-19T01:23:26.786Z,27.80
2018-01-19T01:24:27.184Z,27.40
2018-01-19T01:25:26.666Z,26.40
2018-01-19T01:26:26.934Z,27.00
2018-01-19T01:27:27.581Z,28.30
2018-01-19T01:28:27.173Z,28.20
2018-01-19T01:29:26.692Z,28.20
2018-01-19T01:30:27.096Z,29.10
2018-01-19T01:31:27.604Z,28.00
2018-01-19T01:32:26.892Z,27.80
2018-01-19T01:33:27.311Z,28.80
2018-01-19T01:34:26.582Z,29.80
2018-01-19T01:35:26.980Z,30.50
2018-01-19T01:36:27.606Z,31.60
2018-01-19T01:37:26.831Z,31.10
2018-01-19T01:38:27.616Z,29.90
2018-01-19T01:39:27.484Z,32.10
2018-01-19T01:40:26.739Z,31.90
2018-01-19T01:41:27.452Z,31.40
2018-01-19T01:42:26.866Z,32.10
2018-01-19T01:43:27.420Z,31.00
2018-01-19T01:44:27.230Z,31.40
2018-01-19T01:45:27.003Z,32.10
2018-01-19T01:46:27.342Z,31.80
2018-01-19T01:47:27.222Z,32.40
2018-01-19T01:48:48.123Z,32.60
2018-01-19T01:49:48.919Z,32.00
2018-01-19T01:50:48.347Z,31.80
2018-01-19T01:51:48.239Z,33.20
2018-01-19T01:52:48.969Z,34.30
2018-01-19T01:53:48.403Z,33.90
2018-01-19T01:54:48.971Z,32.20
2018-01-19T01:55:48.952Z,32.40
2018-01-19T01:56:48.359Z,33.10
2018-01-19T01:57:48.233Z,34.40
2018-01-19T01:58:48.693Z,35.00
2018-01-19T01:59:48.492Z,35.70
2018-01-19T02:00:49.183Z,33.80
2018-01-19T02:01:48.946Z,36.00
2018-01-19T02:02:48.634Z,36.30
2018-01-19T02:03:48.118Z,37.40
2018-01-19T02:04:48.544Z,37.30
2018-01-19T02:05:48.029Z,36.80
2018-01-19T02:06:48.483Z,36.70
2018-01-19T02:07:48.258Z,37.60
2018-01-19T02:08:48.681Z,37.20
2018-01-19T02:09:48.366Z,36.70
2018-01-19T02:10:48.167Z,38.40
2018-01-19T02:11:48.475Z,39.20
2018-01-19T02:12:48.884Z,38.00
2018-01-19T02:13:48.333Z,40.20
2018-01-19T02:14:48.157Z,40.00
2018-01-19T02:15:48.980Z,39.60
2018-01-19T02:16:48.675Z,43.40
2018-01-19T02:17:48.682Z,41.30
2018-01-19T02:18:48.339Z,39.60
2018-01-19T02:19:48.601Z,39.90
2018-01-19T02:20:48.343Z,42.30
2018-01-19T02:21:48.544Z,41.40
2018-01-19T02:22:48.081Z,40.20
2018-01-19T02:23:48.673Z,39.70
2018-01-19T02:24:47.947Z,38.90
2018-01-19T02:25:48.445Z,37.80
2018-01-19T02:26:47.988Z,38.90
2018-01-19T02:27:48.653Z,39.00
2018-01-19T02:28:48.396Z,38.60
2018-01-19T02:29:48.169Z,39.20
2018-01-19T02:30:48.652Z,40.00
2018-01-19T02:31:47.998Z,40.40
2018-01-19T02:32:48.687Z,39.70
2018-01-19T02:33:48.032Z,38.70
2018-01-19T02:34:48.540Z,39.70
2018-01-19T02:35:47.946Z,37.80
2018-01-19T02:36:48.734Z,38.40
2018-01-19T02:37:48.572Z,38.80
2018-01-19T02:38:48.263Z,38.50
2018-01-19T02:39:48.891Z,39.40
2018-01-19T02:40:48.675Z,38.50
2018-01-19T02:41:48.376Z,39.40
2018-01-19T02:42:48.600Z,39.50
2018-01-19T02:43:48.135Z,39.70
2018-01-19T02:44:48.494Z,39.30
2018-01-19T02:45:48.312Z,38.40
2018-01-19T02:46:48.739Z,39.30
2018-01-19T02:47:48.302Z,39.20
2018-01-19T02:48:47.657Z,37.40
2018-01-19T02:49:48.072Z,37.90
2018-01-19T02:50:48.353Z,39.00
2018-01-19T02:51:48.144Z,38.40
2018-01-19T02:52:48.964Z,40.70
2018-01-19T02:53:48.275Z,38.50
2018-01-19T02:54:49.049Z,41.40
2018-01-19T02:55:48.492Z,39.50
2018-01-19T02:56:48.647Z,38.70
2018-01-19T02:58:09.265Z,39.20
2018-01-19T02:59:09.620Z,41.40
2018-01-19T03:00:08.944Z,40.50
2018-01-19T03:01:09.747Z,40.20
2018-01-19T03:02:09.537Z,42.10
2018-01-19T03:03:10.028Z,40.80
2018-01-19T03:04:09.739Z,42.10
2018-01-19T03:05:09.557Z,42.30
2018-01-19T03:06:09.286Z,42.70
2018-01-19T03:07:09.990Z,42.50
2018-01-19T03:08:09.285Z,41.90
2018-01-19T03:09:09.821Z,42.80
2018-01-19T03:10:09.605Z,44.00
2018-01-19T03:11:09.032Z,43.80
2018-01-19T03:12:09.672Z,43.30
2018-01-19T03:13:09.000Z,45.80
2018-01-19T03:14:09.140Z,45.80
2018-01-19T03:15:09.839Z,48.10
2018-01-19T03:16:09.379Z,47.20
2018-01-19T03:17:09.733Z,47.80
2018-01-19T03:18:09.428Z,47.40
2018-01-19T03:19:10.117Z,47.20
2018-01-19T03:20:09.921Z,44.80
2018-01-19T03:21:09.720Z,46.00
2018-01-19T03:22:09.051Z,44.50
2018-01-19T03:23:09.553Z,44.70
2018-01-19T03:24:09.773Z,45.20
2018-01-19T03:25:09.378Z,45.60
2018-01-19T03:26:09.607Z,44.80
2018-01-19T03:27:08.951Z,44.70
2018-01-19T03:28:30.703Z,44.40
2018-01-19T03:29:31.094Z,46.00
2018-01-19T03:30:30.828Z,46.00
2018-01-19T03:31:30.355Z,44.40
2018-01-19T03:32:31.133Z,47.60
2018-01-19T03:33:30.622Z,47.70
2018-01-19T03:34:31.299Z,47.00
2018-01-19T03:35:30.768Z,48.40
2018-01-19T03:36:31.255Z,48.80
2018-01-19T03:37:30.475Z,48.50
2018-01-19T03:38:30.665Z,48.20
2018-01-19T03:39:31.102Z,50.20
2018-01-19T03:40:30.373Z,49.10
2018-01-19T03:41:30.675Z,47.30
2018-01-19T03:42:31.177Z,49.80
2018-01-19T03:43:30.986Z,50.30
2018-01-19T03:44:52.802Z,51.40
2018-01-19T03:46:36.263Z,50.60
2018-01-19T03:47:37.267Z,52.70
2018-01-19T03:48:37.062Z,51.70
2018-01-19T03:49:36.462Z,51.30
2018-01-19T03:50:37.163Z,51.70
2018-01-19T03:51:36.736Z,52.30
2018-01-19T03:52:37.681Z,51.20
2018-01-19T03:53:37.700Z,52.70
2018-01-19T03:54:37.504Z,50.20
2018-01-19T03:55:37.227Z,52.20
2018-01-19T03:56:36.972Z,50.00
2018-01-19T03:57:37.208Z,50.10
2018-01-19T03:58:36.644Z,50.70
2018-01-19T03:59:37.464Z,50.90
2018-01-19T04:00:36.819Z,49.80
2018-01-19T04:01:36.287Z,49.70
2018-01-19T04:02:36.775Z,49.90
2018-01-19T04:03:37.473Z,49.80
2018-01-19T04:04:37.283Z,51.60
2018-01-19T04:05:36.648Z,48.90
2018-01-19T04:06:37.195Z,49.00
2018-01-19T04:07:36.596Z,50.20
2018-01-19T04:08:36.781Z,47.20
2018-01-19T04:09:37.807Z,50.40
2018-01-19T04:10:37.396Z,49.60
2018-01-19T04:11:36.836Z,48.60
2018-01-19T04:12:37.654Z,50.30
2018-01-19T04:13:36.948Z,47.10
2018-01-19T04:14:36.420Z,48.10
2018-01-19T04:15:36.859Z,49.30
2018-01-19T04:16:36.568Z,49.10
2018-01-19T04:17:37.236Z,48.20
2018-01-19T04:18:36.888Z,48.00
2018-01-19T04:19:37.188Z,47.50
2018-01-19T04:20:36.914Z,49.30
2018-01-19T04:21:37.342Z,50.40
2018-01-19T04:22:36.904Z,49.90
2018-01-19T04:23:37.514Z,48.30
2018-01-19T04:24:37.266Z,49.30
2018-01-19T04:25:36.469Z,48.10
2018-01-19T04:26:36.630Z,47.40
2018-01-19T04:27:37.381Z,48.50
2018-01-19T04:28:36.712Z,47.20
2018-01-19T04:29:37.242Z,47.00
2018-01-19T04:30:36.501Z,46.10
2018-01-19T04:31:36.990Z,45.70
2018-01-19T04:32:37.150Z,46.00
2018-01-19T04:33:36.456Z,44.60
2018-01-19T04:34:36.819Z,46.60
2018-01-19T04:35:37.480Z,46.10
2018-01-19T04:36:37.207Z,45.40
2018-01-19T04:37:36.588Z,43.50
2018-01-19T04:38:37.382Z,45.70
2018-01-19T04:39:37.341Z,45.30
2018-01-19T04:40:36.865Z,45.40
2018-01-19T04:41:37.434Z,44.80
2018-01-19T04:42:36.916Z,45.50
2018-01-19T04:43:37.452Z,45.30
2018-01-19T04:44:36.660Z,46.00
2018-01-19T04:45:37.134Z,46.00
2018-01-19T04:46:36.582Z,44.30
2018-01-19T04:47:37.364Z,44.50
2018-01-19T04:48:37.060Z,44.80
2018-01-19T04:49:36.577Z,44.70
2018-01-19T04:50:59.056Z,44.60
2018-01-19T04:51:59.389Z,43.70
2018-01-19T04:52:58.634Z,43.40
2018-01-19T04:53:59.215Z,41.00
2018-01-19T04:54:58.916Z,43.80
2018-01-19T04:55:59.590Z,41.10
2018-01-19T04:56:59.095Z,40.90
2018-01-19T04:57:59.448Z,41.00
2018-01-19T04:58:58.616Z,41.90
2018-01-19T04:59:59.538Z,41.80
2018-01-19T05:00:59.129Z,41.20
2018-01-19T05:01:59.189Z,41.50
2018-01-19T05:02:59.375Z,41.00
2018-01-19T05:03:58.756Z,38.70
2018-01-19T05:04:59.211Z,40.50
2018-01-19T05:05:58.547Z,40.00
2018-01-19T05:06:59.063Z,40.00
2018-01-19T05:07:59.851Z,40.90
2018-01-19T05:08:59.210Z,39.40
2018-01-19T05:10:19.962Z,38.80
2018-01-19T05:11:20.627Z,40.20
2018-01-19T05:12:19.999Z,39.70
2018-01-19T05:13:20.303Z,38.80
2018-01-19T05:14:20.717Z,39.10
2018-01-19T05:15:19.967Z,36.20
2018-01-19T05:16:20.775Z,36.90
2018-01-19T05:17:20.326Z,37.80
2018-01-19T05:18:21.224Z,38.70
2018-01-19T05:19:20.327Z,37.10
2018-01-19T05:20:20.942Z,36.00
2018-01-19T05:21:41.681Z,37.20
2018-01-19T05:22:42.515Z,36.10
2018-01-19T05:23:41.790Z,37.50
2018-01-19T05:24:41.876Z,37.00
2018-01-19T05:26:03.961Z,35.30
2018-01-19T05:27:04.186Z,36.30
2018-01-19T05:28:04.114Z,34.70
2018-01-19T05:29:04.770Z,34.70
2018-01-19T05:30:04.140Z,35.10
2018-01-19T05:31:04.824Z,34.50
2018-01-19T05:32:25.504Z,35.00
2018-01-19T05:33:25.689Z,35.50
2018-01-19T05:34:26.070Z,35.10
2018-01-19T05:35:26.751Z,31.90
2018-01-19T05:36:26.104Z,35.80
2018-01-19T05:37:26.652Z,33.10
2018-01-19T05:38:47.631Z,32.80
2018-01-19T05:39:47.871Z,34.60
2018-01-19T05:40:48.514Z,34.60
2018-01-19T05:41:48.011Z,34.70
2018-01-19T05:42:48.249Z,33.90
2018-01-19T05:43:49.648Z,33.20
2018-01-19T05:44:49.319Z,33.00
2018-01-19T05:45:48.179Z,33.00
2018-01-19T05:46:48.695Z,32.90
2018-01-19T05:48:09.476Z,32.90
2018-01-19T05:49:10.234Z,33.30
2018-01-19T05:50:10.917Z,32.80
2018-01-19T05:51:16.856Z,34.00
2018-01-19T05:52:10.212Z,31.60
2018-01-19T05:53:09.989Z,33.50
2018-01-19T05:54:10.565Z,34.30
2018-01-19T05:55:10.304Z,31.70
2018-01-19T05:56:09.810Z,33.00
2018-01-19T05:57:10.430Z,30.70
2018-01-19T05:58:09.846Z,32.40
2018-01-19T05:59:10.210Z,31.10
2018-01-19T06:00:32.096Z,32.90
2018-01-19T06:01:32.584Z,33.50
2018-01-19T06:02:32.664Z,30.90
2018-01-19T06:03:53.738Z,31.10
2018-01-19T06:05:16.030Z,30.50
2018-01-19T06:06:16.894Z,30.30
2018-01-19T06:07:16.469Z,30.70
2018-01-19T06:08:16.798Z,29.70
2018-01-19T06:09:16.036Z,30.50
2018-01-19T06:10:37.422Z,30.00
2018-01-19T06:11:38.488Z,29.80
2018-01-19T06:12:37.667Z,29.50
2018-01-19T06:13:38.206Z,30.00
2018-01-19T06:14:37.794Z,30.60
2018-01-19T06:15:38.207Z,30.30
2018-01-19T06:16:37.818Z,29.30
2018-01-19T06:17:38.682Z,29.80
2018-01-19T06:18:37.913Z,31.60
2018-01-19T06:19:39.448Z,30.40
2018-01-19T06:20:38.437Z,30.20
2018-01-19T06:21:39.632Z,31.20
2018-01-19T06:22:38.458Z,30.10
2018-01-19T06:23:38.229Z,30.50
2018-01-19T06:24:37.782Z,29.80
2018-01-19T06:25:39.270Z,31.00
2018-01-19T06:26:38.220Z,28.50
2018-01-19T06:27:38.359Z,29.90
2018-01-19T06:28:38.379Z,30.50
2018-01-19T06:29:37.898Z,31.40
2018-01-19T06:30:38.390Z,31.50
2018-01-19T06:31:59.310Z,29.70
2018-01-19T06:33:21.112Z,31.70
2018-01-19T06:34:21.813Z,31.40
2018-01-19T06:35:21.131Z,29.00
2018-01-19T06:36:21.022Z,29.80
2018-01-19T06:37:21.890Z,27.60
2018-01-19T06:38:21.318Z,27.50
2018-01-19T06:39:21.961Z,26.50
2018-01-19T06:40:21.583Z,25.80
2018-01-19T06:41:21.146Z,25.90
2018-01-19T06:42:21.285Z,25.50
2018-01-19T06:43:20.762Z,25.30
2018-01-19T06:44:21.074Z,24.60
2018-01-19T06:45:21.928Z,24.60
2018-01-19T06:46:21.501Z,26.50
2018-01-19T06:47:20.728Z,25.10
2018-01-19T06:48:21.140Z,24.70
2018-01-19T06:49:20.715Z,23.60
2018-01-19T06:50:25.380Z,23.10
2018-01-19T06:51:20.891Z,21.20
2018-01-19T06:52:21.776Z,19.80
2018-01-19T06:53:21.333Z,20.50
2018-01-19T06:54:20.912Z,20.90
2018-01-19T06:55:21.897Z,20.90
2018-01-19T06:56:24.411Z,19.90
2018-01-19T06:57:21.005Z,20.50
2018-01-19T06:58:42.660Z,20.40
2018-01-19T06:59:43.051Z,20.30
2018-01-19T07:00:43.509Z,19.00
2018-01-19T07:01:44.287Z,18.90
2018-01-19T07:03:04.156Z,18.90
2018-01-19T07:04:04.915Z,20.10
2018-01-19T07:05:05.022Z,20.20
2018-01-19T07:06:04.352Z,22.10
2018-01-19T07:07:04.521Z,21.60
2018-01-19T07:08:04.874Z,21.10
2018-01-19T07:09:04.132Z,17.10
2018-01-19T07:10:04.913Z,18.70
2018-01-19T07:11:04.250Z,20.50
2018-01-19T07:12:04.406Z,20.20
2018-01-19T07:13:04.684Z,22.10
2018-01-19T07:14:04.841Z,21.00
2018-01-19T07:15:04.609Z,20.30
2018-01-19T07:16:04.993Z,20.30
2018-01-19T07:17:04.704Z,19.80
2018-01-19T07:18:04.919Z,20.50
2018-01-19T07:19:04.790Z,21.30
2018-01-19T07:20:04.861Z,20.50
2018-01-19T07:21:26.472Z,20.40
2018-01-19T07:22:27.086Z,21.50
2018-01-19T07:23:27.230Z,21.40
2018-01-19T07:24:26.535Z,21.30
2018-01-19T07:25:27.009Z,21.80
2018-01-19T07:26:27.750Z,22.10
2018-01-19T07:27:27.044Z,22.10
2018-01-19T07:28:27.525Z,23.10
2018-01-19T07:29:27.392Z,21.70
2018-01-19T07:30:27.524Z,23.20
2018-01-19T07:31:27.450Z,23.60
2018-01-19T07:32:26.869Z,24.30
2018-01-19T07:33:27.812Z,23.10
2018-01-19T07:34:27.774Z,23.00
2018-01-19T07:35:49.699Z,21.30
2018-01-19T07:36:49.059Z,23.50
2018-01-19T07:37:48.595Z,24.30
2018-01-19T07:38:48.880Z,22.70
2018-01-19T07:39:49.387Z,23.50
2018-01-19T07:40:48.595Z,24.30
2018-01-19T07:41:49.444Z,22.90
2018-01-19T07:42:49.226Z,23.30
2018-01-19T07:43:48.311Z,23.80
2018-01-19T07:44:48.602Z,24.30
2018-01-19T07:45:49.309Z,23.70
2018-01-19T07:46:49.357Z,25.30
2018-01-19T07:48:10.882Z,25.00
2018-01-19T07:49:11.627Z,24.20
2018-01-19T07:50:11.179Z,23.80
2018-01-19T07:51:32.584Z,22.90
2018-01-19T07:52:33.001Z,23.80
2018-01-19T07:53:32.935Z,23.40
2018-01-19T07:54:32.620Z,25.60
2018-01-19T07:55:33.727Z,24.80
2018-01-19T07:56:32.539Z,24.00
2018-01-19T07:57:34.453Z,25.90
2018-01-19T07:58:33.391Z,25.40
2018-01-19T07:59:54.759Z,25.80
2018-01-19T08:00:55.571Z,25.10
2018-01-19T08:01:55.348Z,25.20
2018-01-19T08:02:54.805Z,25.40
2018-01-19T08:03:55.348Z,25.80
2018-01-19T08:04:54.951Z,24.70
2018-01-19T08:06:16.736Z,25.40
2018-01-19T08:07:17.984Z,26.50
2018-01-19T08:08:18.057Z,25.70
2018-01-19T08:09:17.741Z,24.90
2018-01-19T08:10:17.436Z,24.90
2018-01-19T08:11:38.707Z,25.50
2018-01-19T08:12:39.151Z,25.10
2018-01-19T08:13:38.616Z,26.20
2018-01-19T08:14:39.006Z,27.50
2018-01-19T08:15:39.021Z,26.30
2018-01-19T08:16:38.870Z,25.00
2018-01-19T08:17:38.523Z,27.40
2018-01-19T08:18:38.813Z,26.60
2018-01-19T08:19:39.614Z,25.00
2018-01-19T08:20:39.564Z,25.40
2018-01-19T08:21:38.898Z,24.00
2018-01-19T08:22:40.090Z,22.10
2018-01-19T08:23:38.607Z,24.10
2018-01-19T08:24:39.426Z,23.90
2018-01-19T08:25:39.313Z,25.70
2018-01-19T08:26:39.282Z,23.90
2018-01-19T08:27:38.601Z,25.10
2018-01-19T08:28:39.485Z,24.70
2018-01-19T08:29:38.909Z,25.30
2018-01-19T08:30:38.238Z,23.90
2018-01-19T08:31:39.169Z,24.30
2018-01-19T08:32:38.730Z,22.80
2018-01-19T08:33:38.639Z,23.90
2018-01-19T08:34:39.514Z,24.30
2018-01-19T08:35:39.397Z,26.50
2018-01-19T08:36:38.866Z,27.00
2018-01-19T08:37:39.648Z,22.90
2018-01-19T08:39:00.985Z,24.80
2018-01-19T08:40:01.952Z,20.30
2018-01-19T08:41:01.605Z,23.70
2018-01-19T08:42:01.080Z,23.80
2018-01-19T08:43:01.683Z,23.60
2018-01-19T08:44:02.982Z,25.10
2018-01-19T08:45:01.785Z,23.60
2018-01-19T08:46:01.631Z,26.30
2018-01-19T08:47:01.593Z,29.00
2018-01-19T08:48:01.023Z,24.60
2018-01-19T08:49:01.920Z,24.20
2018-01-19T08:50:01.519Z,25.90
2018-01-19T08:51:01.216Z,26.30
2018-01-19T08:52:01.799Z,25.60
2018-01-19T08:53:01.228Z,26.00
2018-01-19T08:54:01.750Z,26.30
2018-01-19T08:55:01.873Z,23.70
2018-01-19T08:56:01.938Z,22.70
2018-01-19T08:57:02.308Z,24.70
2018-01-19T08:58:01.230Z,25.80
2018-01-19T08:59:01.909Z,26.70
2018-01-19T09:00:01.821Z,24.80
2018-01-19T09:01:01.322Z,26.10
2018-01-19T09:02:01.382Z,23.70
2018-01-19T09:03:01.545Z,26.10
2018-01-19T09:04:01.009Z,25.10
2018-01-19T09:05:02.479Z,25.60
2018-01-19T09:06:01.302Z,25.40
2018-01-19T09:07:01.081Z,26.80
2018-01-19T09:08:01.943Z,26.20
2018-01-19T09:09:02.218Z,27.20
2018-01-19T09:10:02.125Z,25.80
2018-01-19T09:11:02.187Z,23.60
2018-01-19T09:12:02.084Z,26.40
2018-01-19T09:13:01.995Z,25.60
2018-01-19T09:14:01.742Z,26.70
2018-01-19T09:15:01.326Z,27.20
2018-01-19T09:16:01.328Z,26.60
2018-01-19T09:17:02.177Z,25.30
2018-01-19T09:18:02.045Z,26.10
2018-01-19T09:19:01.375Z,25.70
2018-01-19T09:20:01.293Z,27.20
2018-01-19T09:21:01.195Z,26.60
2018-01-19T09:22:02.082Z,25.50
2018-01-19T09:23:01.477Z,24.30
2018-01-19T09:24:01.292Z,26.50
2018-01-19T09:25:01.287Z,26.90
2018-01-19T09:26:01.991Z,27.20
2018-01-19T09:27:01.394Z,26.30
2018-01-19T09:28:01.431Z,26.90
2018-01-19T09:29:00.982Z,26.10
2018-01-19T09:30:01.458Z,25.20
2018-01-19T09:31:01.183Z,25.10
2018-01-19T09:32:02.345Z,24.40
2018-01-19T09:33:01.016Z,22.30
2018-01-19T09:34:01.716Z,22.90
2018-01-19T09:35:01.481Z,20.50
2018-01-19T09:36:00.870Z,18.40
2018-01-19T09:37:01.853Z,19.90
2018-01-19T09:38:01.703Z,20.80
2018-01-19T09:39:00.990Z,19.40
2018-01-19T09:40:01.493Z,19.70
2018-01-19T09:41:23.597Z,17.80
2018-01-19T09:42:23.581Z,16.60
2018-01-19T09:43:23.620Z,18.10
2018-01-19T09:44:24.137Z,18.40
2018-01-19T09:45:24.052Z,17.10
2018-01-19T09:46:23.731Z,16.90
2018-01-19T09:47:23.214Z,18.20
2018-01-19T09:48:24.274Z,17.70
2018-01-19T09:49:24.108Z,17.60
2018-01-19T09:50:23.407Z,16.30
2018-01-19T09:51:24.751Z,17.00
2018-01-19T09:52:23.549Z,18.90
2018-01-19T09:53:24.548Z,18.50
2018-01-19T09:54:24.282Z,18.40
2018-01-19T09:55:23.610Z,17.70
2018-01-19T09:56:23.340Z,18.10
2018-01-19T09:57:24.426Z,15.20
2018-01-19T09:58:46.309Z,17.80
2018-01-19T09:59:45.951Z,16.90
2018-01-19T10:00:46.744Z,14.10
2018-01-19T10:02:07.704Z,16.90
2018-01-19T10:03:08.703Z,16.80
2018-01-19T10:04:08.742Z,18.00
2018-01-19T10:05:08.641Z,17.20
2018-01-19T10:06:08.428Z,18.70
2018-01-19T10:07:07.859Z,16.50
2018-01-19T10:08:08.744Z,17.10
2018-01-19T10:09:08.347Z,17.00
2018-01-19T10:10:07.820Z,16.30
2018-01-19T10:11:08.275Z,16.20
2018-01-19T10:12:07.667Z,17.50
2018-01-19T10:13:08.454Z,17.00
2018-01-19T10:14:08.054Z,16.20
2018-01-19T10:15:08.873Z,17.20
2018-01-19T10:16:08.647Z,14.10
2018-01-19T10:17:08.736Z,15.00
2018-01-19T10:18:08.747Z,16.50
2018-01-19T10:19:08.434Z,16.40
2018-01-19T10:20:29.544Z,15.30
2018-01-19T10:21:29.211Z,14.50
2018-01-19T10:22:29.761Z,13.30
2018-01-19T10:23:29.573Z,14.90
2018-01-19T10:24:29.394Z,14.50
2018-01-19T10:25:29.416Z,13.30
2018-01-19T10:26:28.870Z,13.60
2018-01-19T10:27:29.790Z,13.00
2018-01-19T10:28:29.254Z,12.40
2018-01-19T10:29:29.989Z,12.50
2018-01-19T10:30:30.072Z,13.30
2018-01-19T10:31:29.516Z,12.90
2018-01-19T10:32:29.460Z,11.70
2018-01-19T10:33:28.947Z,13.40
2018-01-19T10:34:29.413Z,13.60
2018-01-19T10:35:30.203Z,13.20
2018-01-19T10:36:29.555Z,13.50
2018-01-19T10:37:29.604Z,12.60
2018-01-19T10:38:29.382Z,12.70
2018-01-19T10:39:29.915Z,13.20
2018-01-19T10:40:29.923Z,12.30
2018-01-19T10:41:29.838Z,12.40
2018-01-19T10:42:29.995Z,10.80
2018-01-19T10:43:29.618Z,12.20
2018-01-19T10:44:29.917Z,10.80
2018-01-19T10:45:29.612Z,11.40
2018-01-19T10:46:29.200Z,10.70
2018-01-19T10:47:30.158Z,10.80
2018-01-19T10:48:29.589Z,10.90
2018-01-19T10:49:29.288Z,10.70
2018-01-19T10:50:30.290Z,10.50
2018-01-19T10:51:29.845Z,9.50
2018-01-19T10:52:29.810Z,9.80
2018-01-19T10:53:29.331Z,9.70
2018-01-19T10:54:29.300Z,9.90
2018-01-19T10:55:30.034Z,10.40
2018-01-19T10:56:30.487Z,10.60
2018-01-19T10:57:29.430Z,10.20
2018-01-19T10:58:28.924Z,9.80
2018-01-19T10:59:29.280Z,10.40
2018-01-19T11:00:29.752Z,10.40
2018-01-19T11:01:29.499Z,10.00
2018-01-19T11:02:29.351Z,10.80
2018-01-19T11:03:51.729Z,10.40
2018-01-19T11:04:52.387Z,12.00
2018-01-19T11:05:52.152Z,12.10
2018-01-19T11:06:52.169Z,12.60
2018-01-19T11:07:52.070Z,12.50
2018-01-19T11:08:51.642Z,12.70
2018-01-19T11:09:52.202Z,12.50
2018-01-19T11:10:51.692Z,13.00
2018-01-19T11:11:51.562Z,13.30
2018-01-19T11:12:52.571Z,13.10
2018-01-19T11:13:52.383Z,14.40
2018-01-19T11:14:52.288Z,13.00
2018-01-19T11:15:52.017Z,13.60
2018-01-19T11:16:51.715Z,14.00
2018-01-19T11:17:51.617Z,14.20
2018-01-19T11:18:52.897Z,13.50
2018-01-19T11:19:51.702Z,13.60
2018-01-19T11:20:51.664Z,14.80
2018-01-19T11:21:51.988Z,13.60
2018-01-19T11:22:51.721Z,14.10
2018-01-19T11:24:13.510Z,15.10
2018-01-19T11:25:14.133Z,13.90
2018-01-19T11:26:14.808Z,13.70
2018-01-19T11:27:35.815Z,13.40
2018-01-19T11:28:36.873Z,13.30
2018-01-19T11:29:36.659Z,13.90
2018-01-19T11:30:36.989Z,15.10
2018-01-19T11:31:36.399Z,14.70
2018-01-19T11:32:36.239Z,14.00
2018-01-19T11:33:37.018Z,15.30
2018-01-19T11:34:36.516Z,14.50
2018-01-19T11:35:36.502Z,14.80
2018-01-19T11:36:58.246Z,14.50
2018-01-19T11:37:57.818Z,14.70
2018-01-19T11:38:58.932Z,15.40
2018-01-19T11:39:58.243Z,15.10
2018-01-19T11:40:58.234Z,14.20
2018-01-19T11:42:19.329Z,14.50
2018-01-19T11:43:20.143Z,13.10
2018-01-19T11:44:19.812Z,14.50
2018-01-19T11:45:19.738Z,13.10
2018-01-19T11:46:20.544Z,14.60
2018-01-19T11:47:20.325Z,12.80
2018-01-19T11:48:20.199Z,13.30
2018-01-19T11:49:19.842Z,13.90
2018-01-19T11:50:20.683Z,12.80
2018-01-19T11:51:20.505Z,13.40
2018-01-19T11:52:20.035Z,11.80
2018-01-19T11:53:19.542Z,11.60
2018-01-19T11:54:20.083Z,11.20
2018-01-19T11:55:19.630Z,11.60
2018-01-19T11:56:20.386Z,13.20
2018-01-19T11:57:20.460Z,10.60
2018-01-19T11:58:42.200Z,9.30
2018-01-19T11:59:42.267Z,10.10
2018-01-19T12:00:42.162Z,11.60
2018-01-19T12:01:42.152Z,11.40
2018-01-19T12:02:41.849Z,10.00
2018-01-19T12:03:42.436Z,10.70
2018-01-19T12:04:42.487Z,10.90
2018-01-19T12:05:43.701Z,9.80
2018-01-19T12:06:41.200Z,8.70
2018-01-19T12:07:42.362Z,8.90
2018-01-19T12:08:42.039Z,9.20
2018-01-19T12:09:41.963Z,10.10
2018-01-19T12:10:41.884Z,10.00
2018-01-19T12:12:02.881Z,9.90
2018-01-19T12:13:04.158Z,10.10
2018-01-19T12:14:02.829Z,9.80
2018-01-19T12:15:02.501Z,10.80
2018-01-19T12:16:04.373Z,9.50
2018-01-19T12:17:02.962Z,10.80
2018-01-19T12:18:23.608Z,8.60
2018-01-19T12:19:24.588Z,8.40
2018-01-19T12:20:24.031Z,9.00
2018-01-19T12:21:24.855Z,9.60
2018-01-19T12:23:07.315Z,11.40
2018-01-19T12:24:08.350Z,11.20
2018-01-19T12:25:08.243Z,8.80
2018-01-19T12:26:08.040Z,7.50
2018-01-19T12:27:08.192Z,8.10
2018-01-19T12:28:08.055Z,7.80
2018-01-19T12:29:55.903Z,6.70
2018-01-19T12:31:17.896Z,7.70
2018-01-19T12:32:19.017Z,7.50
2018-01-19T12:33:40.413Z,7.10
2018-01-19T12:34:40.978Z,7.30
2018-01-19T12:35:41.572Z,7.10
2018-01-19T12:36:40.157Z,7.20
2018-01-19T12:37:41.016Z,7.10
2018-01-19T12:38:40.414Z,7.10
2018-01-19T12:39:41.363Z,7.70
2018-01-19T12:40:40.691Z,7.90
2018-01-19T12:41:40.313Z,7.70
2018-01-19T12:42:41.037Z,6.20
2018-01-19T12:43:41.347Z,6.50
2018-01-19T12:44:41.519Z,6.60
2018-01-19T12:45:43.676Z,8.00
2018-01-19T12:46:40.732Z,6.60
2018-01-19T12:47:40.471Z,6.80
2018-01-19T12:48:41.515Z,6.20
2018-01-19T12:49:41.212Z,6.30
2018-01-19T12:50:40.987Z,6.40
2018-01-19T12:51:40.539Z,6.70
2018-01-19T12:52:40.970Z,7.00
2018-01-19T12:53:40.245Z,6.50
2018-01-19T12:54:40.962Z,6.10
2018-01-19T12:55:40.794Z,6.10
2018-01-19T12:56:40.361Z,6.00
2018-01-19T12:57:40.912Z,6.40
2018-01-19T12:58:40.462Z,6.70
2018-01-19T12:59:41.636Z,6.60
2018-01-19T13:00:40.034Z,6.50
2018-01-19T13:01:40.485Z,5.80
2018-01-19T13:02:41.665Z,6.10
2018-01-19T13:03:41.210Z,6.10
2018-01-19T13:04:42.584Z,6.40
2018-01-19T13:05:40.598Z,6.70
2018-01-19T13:06:41.409Z,6.60
2018-01-19T13:07:41.044Z,7.00
2018-01-19T13:08:43.024Z,6.80
2018-01-19T13:09:41.259Z,5.40
2018-01-19T13:10:42.247Z,5.90
2018-01-19T13:11:42.300Z,5.90
2018-01-19T13:12:41.845Z,6.10